sensor_id;sensor_type;location;lat;lon;timestamp;P1;durP1;ratioP1;P2;durP2;ratioP2
76612;SDS011;65507;48.454;-2.058;2024-01-30T00:01:42;9.98;;;4.40;;
76612;SDS011;65507;48.454;-2.058;2024-01-30T00:04:08;14.77;;;4.63;;
76612;SDS011;65507;48.454;-2.058;2024-01-30T00:06:33;16.08;;;5.00;;
76612;SDS011;65507;48.454;-2.058;2024-01-30T00:08:59;13.73;;;4.70;;
76612;SDS011;65507;48.454;-2.058;2024-01-30T00:11:25;11.57;;;4.15;;
76612;SDS011;65507;48.454;-2.058;2024-01-30T00:13:51;10.50;;;3.22;;
76612;SDS011;65507;48.454;-2.058;2024-01-30T00:16:20;9.95;;;2.70;;
76612;SDS011;65507;48.454;-2.058;2024-01-30T00:18:47;9.38;;;2.80;;
76612;SDS011;65507;48.454;-2.058;2024-01-30T00:21:13;6.77;;;2.73;;
76612;SDS011;65507;48.454;-2.058;2024-01-30T00:23:39;5.80;;;1.95;;
76612;SDS011;65507;48.454;-2.058;2024-01-30T00:26:04;8.88;;;1.90;;
76612;SDS011;65507;48.454;-2.058;2024-01-30T00:28:31;6.25;;;2.00;;
76612;SDS011;65507;48.454;-2.058;2024-01-30T00:30:56;4.80;;;1.80;;
76612;SDS011;65507;48.454;-2.058;2024-01-30T00:33:22;4.80;;;1.60;;
76612;SDS011;65507;48.454;-2.058;2024-01-30T00:35:48;1.98;;;1.35;;
76612;SDS011;65507;48.454;-2.058;2024-01-30T00:38:13;6.43;;;1.55;;
76612;SDS011;65507;48.454;-2.058;2024-01-30T00:40:39;3.42;;;1.10;;
76612;SDS011;65507;48.454;-2.058;2024-01-30T00:43:04;3.63;;;1.30;;
76612;SDS011;65507;48.454;-2.058;2024-01-30T00:45:30;3.58;;;1.10;;
76612;SDS011;65507;48.454;-2.058;2024-01-30T00:47:56;2.78;;;1.00;;
76612;SDS011;65507;48.454;-2.058;2024-01-30T00:50:22;4.13;;;1.15;;
76612;SDS011;65507;48.454;-2.058;2024-01-30T00:52:48;4.63;;;1.13;;
76612;SDS011;65507;48.454;-2.058;2024-01-30T00:55:13;4.50;;;0.95;;
76612;SDS011;65507;48.454;-2.058;2024-01-30T00:57:39;3.13;;;0.70;;
76612;SDS011;65507;48.454;-2.058;2024-01-30T01:00:05;5.95;;;1.00;;
76612;SDS011;65507;48.454;-2.058;2024-01-30T01:02:34;5.95;;;0.82;;
76612;SDS011;65507;48.454;-2.058;2024-01-30T01:05:00;1.40;;;0.40;;
76612;SDS011;65507;48.454;-2.058;2024-01-30T01:07:26;2.70;;;0.50;;
76612;SDS011;65507;48.454;-2.058;2024-01-30T01:09:51;2.13;;;0.70;;
76612;SDS011;65507;48.454;-2.058;2024-01-30T01:12:17;1.45;;;0.40;;
76612;SDS011;65507;48.454;-2.058;2024-01-30T01:14:43;1.17;;;0.32;;
76612;SDS011;65507;48.454;-2.058;2024-01-30T01:17:08;3.33;;;0.82;;
76612;SDS011;65507;48.454;-2.058;2024-01-30T01:19:34;7.80;;;0.80;;
76612;SDS011;65507;48.454;-2.058;2024-01-30T01:22:00;1.92;;;0.60;;
76612;SDS011;65507;48.454;-2.058;2024-01-30T01:24:25;3.97;;;0.45;;
76612;SDS011;65507;48.454;-2.058;2024-01-30T01:26:51;2.33;;;0.55;;
76612;SDS011;65507;48.454;-2.058;2024-01-30T01:29:17;1.05;;;0.40;;
76612;SDS011;65507;48.454;-2.058;2024-01-30T01:31:42;1.13;;;0.60;;
76612;SDS011;65507;48.454;-2.058;2024-01-30T01:34:11;1.52;;;0.50;;
76612;SDS011;65507;48.454;-2.058;2024-01-30T01:36:38;4.22;;;0.50;;
76612;SDS011;65507;48.454;-2.058;2024-01-30T01:39:04;1.58;;;0.57;;
76612;SDS011;65507;48.454;-2.058;2024-01-30T01:41:30;0.82;;;0.45;;
76612;SDS011;65507;48.454;-2.058;2024-01-30T01:43:59;2.08;;;0.50;;
76612;SDS011;65507;48.454;-2.058;2024-01-30T01:46:29;1.05;;;0.40;;
76612;SDS011;65507;48.454;-2.058;2024-01-30T01:48:57;1.55;;;0.45;;
76612;SDS011;65507;48.454;-2.058;2024-01-30T01:51:24;4.13;;;0.50;;
76612;SDS011;65507;48.454;-2.058;2024-01-30T01:53:53;1.45;;;0.40;;
76612;SDS011;65507;48.454;-2.058;2024-01-30T01:58:45;1.23;;;0.20;;
76612;SDS011;65507;48.454;-2.058;2024-01-30T02:01:12;0.38;;;0.28;;
76612;SDS011;65507;48.454;-2.058;2024-01-30T02:03:39;0.30;;;0.20;;
76612;SDS011;65507;48.454;-2.058;2024-01-30T02:06:06;2.37;;;0.37;;
76612;SDS011;65507;48.454;-2.058;2024-01-30T02:08:31;1.05;;;0.30;;
76612;SDS011;65507;48.454;-2.058;2024-01-30T02:10:58;0.90;;;0.30;;
76612;SDS011;65507;48.454;-2.058;2024-01-30T02:13:24;1.30;;;0.30;;
76612;SDS011;65507;48.454;-2.058;2024-01-30T02:15:53;0.15;;;0.15;;
76612;SDS011;65507;48.454;-2.058;2024-01-30T02:18:19;0.65;;;0.20;;
76612;SDS011;65507;48.454;-2.058;2024-01-30T02:20:48;0.30;;;0.30;;
76612;SDS011;65507;48.454;-2.058;2024-01-30T02:23:15;1.73;;;0.30;;
76612;SDS011;65507;48.454;-2.058;2024-01-30T02:25:41;1.15;;;0.20;;
76612;SDS011;65507;48.454;-2.058;2024-01-30T02:28:12;0.82;;;0.17;;
76612;SDS011;65507;48.454;-2.058;2024-01-30T02:30:39;2.28;;;0.30;;
76612;SDS011;65507;48.454;-2.058;2024-01-30T02:33:04;0.43;;;0.20;;
76612;SDS011;65507;48.454;-2.058;2024-01-30T02:35:30;2.35;;;0.40;;
76612;SDS011;65507;48.454;-2.058;2024-01-30T02:37:56;0.82;;;0.40;;
76612;SDS011;65507;48.454;-2.058;2024-01-30T02:40:22;2.75;;;0.30;;
76612;SDS011;65507;48.454;-2.058;2024-01-30T02:42:47;1.10;;;0.20;;
76612;SDS011;65507;48.454;-2.058;2024-01-30T02:45:13;2.03;;;0.47;;
76612;SDS011;65507;48.454;-2.058;2024-01-30T02:47:39;0.28;;;0.28;;
76612;SDS011;65507;48.454;-2.058;2024-01-30T02:50:05;0.55;;;0.50;;
76612;SDS011;65507;48.454;-2.058;2024-01-30T02:52:31;0.35;;;0.30;;
76612;SDS011;65507;48.454;-2.058;2024-01-30T02:54:57;4.15;;;0.55;;
76612;SDS011;65507;48.454;-2.058;2024-01-30T02:57:23;1.58;;;0.50;;
76612;SDS011;65507;48.454;-2.058;2024-01-30T02:59:49;0.50;;;0.50;;
76612;SDS011;65507;48.454;-2.058;2024-01-30T03:02:14;2.80;;;0.57;;
76612;SDS011;65507;48.454;-2.058;2024-01-30T03:04:40;1.85;;;0.50;;
76612;SDS011;65507;48.454;-2.058;2024-01-30T03:07:07;2.88;;;0.50;;
76612;SDS011;65507;48.454;-2.058;2024-01-30T03:09:33;0.95;;;0.60;;
76612;SDS011;65507;48.454;-2.058;2024-01-30T03:11:58;1.88;;;0.60;;
76612;SDS011;65507;48.454;-2.058;2024-01-30T03:14:24;1.05;;;0.30;;
76612;SDS011;65507;48.454;-2.058;2024-01-30T03:16:50;0.50;;;0.30;;
76612;SDS011;65507;48.454;-2.058;2024-01-30T03:19:15;0.60;;;0.30;;
76612;SDS011;65507;48.454;-2.058;2024-01-30T03:21:41;1.50;;;0.30;;
76612;SDS011;65507;48.454;-2.058;2024-01-30T03:24:07;0.35;;;0.30;;
76612;SDS011;65507;48.454;-2.058;2024-01-30T03:26:32;0.20;;;0.20;;
76612;SDS011;65507;48.454;-2.058;2024-01-30T03:28:58;0.17;;;0.17;;
76612;SDS011;65507;48.454;-2.058;2024-01-30T03:31:23;1.33;;;0.30;;
76612;SDS011;65507;48.454;-2.058;2024-01-30T03:33:49;0.10;;;0.10;;
76612;SDS011;65507;48.454;-2.058;2024-01-30T03:36:15;0.30;;;0.30;;
76612;SDS011;65507;48.454;-2.058;2024-01-30T03:38:41;0.28;;;0.20;;
76612;SDS011;65507;48.454;-2.058;2024-01-30T03:41:09;0.10;;;0.10;;
76612;SDS011;65507;48.454;-2.058;2024-01-30T03:43:35;0.20;;;0.20;;
76612;SDS011;65507;48.454;-2.058;2024-01-30T03:46:01;0.15;;;0.15;;
76612;SDS011;65507;48.454;-2.058;2024-01-30T03:48:28;1.20;;;0.20;;
76612;SDS011;65507;48.454;-2.058;2024-01-30T03:50:54;0.28;;;0.20;;
76612;SDS011;65507;48.454;-2.058;2024-01-30T03:53:19;0.40;;;0.30;;
76612;SDS011;65507;48.454;-2.058;2024-01-30T03:55:45;0.28;;;0.17;;
76612;SDS011;65507;48.454;-2.058;2024-01-30T03:58:11;0.35;;;0.35;;
76612;SDS011;65507;48.454;-2.058;2024-01-30T04:00:36;0.20;;;0.20;;
76612;SDS011;65507;48.454;-2.058;2024-01-30T04:03:02;1.90;;;0.40;;
76612;SDS011;65507;48.454;-2.058;2024-01-30T04:05:28;0.30;;;0.30;;
76612;SDS011;65507;48.454;-2.058;2024-01-30T04:07:54;0.63;;;0.35;;
76612;SDS011;65507;48.454;-2.058;2024-01-30T04:10:20;1.50;;;0.40;;
76612;SDS011;65507;48.454;-2.058;2024-01-30T04:12:45;0.30;;;0.30;;
76612;SDS011;65507;48.454;-2.058;2024-01-30T04:15:11;0.20;;;0.20;;
76612;SDS011;65507;48.454;-2.058;2024-01-30T04:17:38;0.40;;;0.40;;
76612;SDS011;65507;48.454;-2.058;2024-01-30T04:20:05;0.28;;;0.28;;
76612;SDS011;65507;48.454;-2.058;2024-01-30T04:22:31;0.20;;;0.20;;
76612;SDS011;65507;48.454;-2.058;2024-01-30T04:24:56;0.40;;;0.20;;
76612;SDS011;65507;48.454;-2.058;2024-01-30T04:27:22;1.35;;;0.38;;
76612;SDS011;65507;48.454;-2.058;2024-01-30T04:29:48;0.65;;;0.38;;
76612;SDS011;65507;48.454;-2.058;2024-01-30T04:32:14;1.27;;;0.30;;
76612;SDS011;65507;48.454;-2.058;2024-01-30T04:34:39;0.38;;;0.25;;
76612;SDS011;65507;48.454;-2.058;2024-01-30T04:37:05;0.57;;;0.32;;
76612;SDS011;65507;48.454;-2.058;2024-01-30T04:39:32;0.68;;;0.30;;
76612;SDS011;65507;48.454;-2.058;2024-01-30T04:41:58;0.43;;;0.30;;
76612;SDS011;65507;48.454;-2.058;2024-01-30T04:44:24;2.25;;;0.40;;
76612;SDS011;65507;48.454;-2.058;2024-01-30T04:46:50;0.20;;;0.20;;
76612;SDS011;65507;48.454;-2.058;2024-01-30T04:49:15;0.45;;;0.30;;
76612;SDS011;65507;48.454;-2.058;2024-01-30T04:51:41;0.25;;;0.20;;
76612;SDS011;65507;48.454;-2.058;2024-01-30T04:54:07;1.60;;;0.40;;
76612;SDS011;65507;48.454;-2.058;2024-01-30T04:56:33;0.82;;;0.40;;
76612;SDS011;65507;48.454;-2.058;2024-01-30T04:59:00;0.80;;;0.45;;
76612;SDS011;65507;48.454;-2.058;2024-01-30T05:01:27;0.35;;;0.28;;
76612;SDS011;65507;48.454;-2.058;2024-01-30T05:03:53;0.20;;;0.20;;
76612;SDS011;65507;48.454;-2.058;2024-01-30T05:06:25;0.20;;;0.20;;
76612;SDS011;65507;48.454;-2.058;2024-01-30T05:08:51;0.32;;;0.30;;
76612;SDS011;65507;48.454;-2.058;2024-01-30T05:11:17;0.20;;;0.20;;
76612;SDS011;65507;48.454;-2.058;2024-01-30T05:13:42;0.40;;;0.30;;
76612;SDS011;65507;48.454;-2.058;2024-01-30T05:16:08;0.40;;;0.30;;
76612;SDS011;65507;48.454;-2.058;2024-01-30T05:18:34;0.40;;;0.30;;
76612;SDS011;65507;48.454;-2.058;2024-01-30T05:20:59;0.35;;;0.35;;
76612;SDS011;65507;48.454;-2.058;2024-01-30T05:23:25;0.35;;;0.30;;
76612;SDS011;65507;48.454;-2.058;2024-01-30T05:25:51;0.30;;;0.30;;
76612;SDS011;65507;48.454;-2.058;2024-01-30T05:28:16;0.55;;;0.28;;
76612;SDS011;65507;48.454;-2.058;2024-01-30T05:30:42;1.15;;;0.40;;
76612;SDS011;65507;48.454;-2.058;2024-01-30T05:33:08;0.70;;;0.40;;
76612;SDS011;65507;48.454;-2.058;2024-01-30T05:35:34;1.38;;;0.40;;
76612;SDS011;65507;48.454;-2.058;2024-01-30T05:38:00;0.50;;;0.30;;
76612;SDS011;65507;48.454;-2.058;2024-01-30T05:40:26;0.40;;;0.38;;
76612;SDS011;65507;48.454;-2.058;2024-01-30T05:42:52;0.40;;;0.40;;
76612;SDS011;65507;48.454;-2.058;2024-01-30T05:45:18;0.50;;;0.40;;
76612;SDS011;65507;48.454;-2.058;2024-01-30T05:47:43;0.35;;;0.35;;
76612;SDS011;65507;48.454;-2.058;2024-01-30T05:50:09;0.60;;;0.40;;
76612;SDS011;65507;48.454;-2.058;2024-01-30T05:52:35;0.57;;;0.30;;
76612;SDS011;65507;48.454;-2.058;2024-01-30T05:55:00;1.17;;;0.50;;
76612;SDS011;65507;48.454;-2.058;2024-01-30T05:57:26;0.77;;;0.38;;
76612;SDS011;65507;48.454;-2.058;2024-01-30T05:59:52;0.50;;;0.50;;
76612;SDS011;65507;48.454;-2.058;2024-01-30T06:02:17;0.57;;;0.47;;
76612;SDS011;65507;48.454;-2.058;2024-01-30T06:04:43;0.50;;;0.30;;
76612;SDS011;65507;48.454;-2.058;2024-01-30T06:07:09;0.55;;;0.30;;
76612;SDS011;65507;48.454;-2.058;2024-01-30T06:09:35;1.13;;;0.52;;
76612;SDS011;65507;48.454;-2.058;2024-01-30T06:12:01;0.47;;;0.47;;
76612;SDS011;65507;48.454;-2.058;2024-01-30T06:14:26;0.35;;;0.35;;
76612;SDS011;65507;48.454;-2.058;2024-01-30T06:16:52;1.30;;;0.40;;
76612;SDS011;65507;48.454;-2.058;2024-01-30T06:19:17;1.85;;;0.30;;
76612;SDS011;65507;48.454;-2.058;2024-01-30T06:21:43;2.55;;;0.47;;
76612;SDS011;65507;48.454;-2.058;2024-01-30T06:24:10;0.65;;;0.30;;
76612;SDS011;65507;48.454;-2.058;2024-01-30T06:26:36;0.55;;;0.40;;
76612;SDS011;65507;48.454;-2.058;2024-01-30T06:29:01;1.17;;;0.50;;
76612;SDS011;65507;48.454;-2.058;2024-01-30T06:31:27;0.70;;;0.40;;
76612;SDS011;65507;48.454;-2.058;2024-01-30T06:33:53;0.75;;;0.55;;
76612;SDS011;65507;48.454;-2.058;2024-01-30T06:36:18;4.20;;;0.70;;
76612;SDS011;65507;48.454;-2.058;2024-01-30T06:38:44;1.88;;;0.55;;
76612;SDS011;65507;48.454;-2.058;2024-01-30T06:41:10;0.77;;;0.40;;
76612;SDS011;65507;48.454;-2.058;2024-01-30T06:43:36;0.68;;;0.60;;
76612;SDS011;65507;48.454;-2.058;2024-01-30T06:46:02;2.60;;;0.85;;
76612;SDS011;65507;48.454;-2.058;2024-01-30T06:48:27;0.50;;;0.50;;
76612;SDS011;65507;48.454;-2.058;2024-01-30T06:50:53;0.90;;;0.60;;
76612;SDS011;65507;48.454;-2.058;2024-01-30T06:53:19;2.05;;;0.70;;
76612;SDS011;65507;48.454;-2.058;2024-01-30T06:55:45;1.17;;;0.60;;
76612;SDS011;65507;48.454;-2.058;2024-01-30T06:58:11;1.33;;;0.63;;
76612;SDS011;65507;48.454;-2.058;2024-01-30T07:00:37;1.52;;;0.77;;
76612;SDS011;65507;48.454;-2.058;2024-01-30T07:03:02;3.55;;;1.10;;
76612;SDS011;65507;48.454;-2.058;2024-01-30T07:05:28;1.33;;;0.90;;
76612;SDS011;65507;48.454;-2.058;2024-01-30T07:07:54;1.95;;;0.80;;
76612;SDS011;65507;48.454;-2.058;2024-01-30T07:10:20;1.73;;;0.73;;
76612;SDS011;65507;48.454;-2.058;2024-01-30T07:12:45;2.92;;;0.88;;
76612;SDS011;65507;48.454;-2.058;2024-01-30T07:15:11;2.20;;;0.90;;
76612;SDS011;65507;48.454;-2.058;2024-01-30T07:17:39;1.08;;;0.68;;
76612;SDS011;65507;48.454;-2.058;2024-01-30T07:20:05;2.08;;;1.10;;
76612;SDS011;65507;48.454;-2.058;2024-01-30T07:22:32;2.72;;;0.98;;
76612;SDS011;65507;48.454;-2.058;2024-01-30T07:24:58;23.42;;;8.75;;
76612;SDS011;65507;48.454;-2.058;2024-01-30T07:27:24;3.00;;;1.33;;
76612;SDS011;65507;48.454;-2.058;2024-01-30T07:29:50;3.28;;;1.00;;
76612;SDS011;65507;48.454;-2.058;2024-01-30T07:32:15;0.90;;;0.68;;
76612;SDS011;65507;48.454;-2.058;2024-01-30T07:34:41;7.68;;;1.05;;
76612;SDS011;65507;48.454;-2.058;2024-01-30T07:37:07;1.52;;;0.80;;
76612;SDS011;65507;48.454;-2.058;2024-01-30T07:39:33;1.00;;;0.90;;
76612;SDS011;65507;48.454;-2.058;2024-01-30T07:41:59;0.70;;;0.60;;
76612;SDS011;65507;48.454;-2.058;2024-01-30T07:44:25;3.08;;;0.90;;
76612;SDS011;65507;48.454;-2.058;2024-01-30T07:46:51;2.17;;;0.88;;
76612;SDS011;65507;48.454;-2.058;2024-01-30T07:49:16;1.98;;;0.80;;
76612;SDS011;65507;48.454;-2.058;2024-01-30T07:51:42;1.23;;;0.80;;
76612;SDS011;65507;48.454;-2.058;2024-01-30T07:56:41;4.57;;;0.98;;
76612;SDS011;65507;48.454;-2.058;2024-01-30T07:59:10;1.58;;;0.93;;
76612;SDS011;65507;48.454;-2.058;2024-01-30T08:01:36;3.35;;;0.90;;
76612;SDS011;65507;48.454;-2.058;2024-01-30T08:04:02;1.90;;;0.88;;
76612;SDS011;65507;48.454;-2.058;2024-01-30T08:06:28;3.25;;;0.98;;
76612;SDS011;65507;48.454;-2.058;2024-01-30T08:08:54;2.55;;;1.20;;
76612;SDS011;65507;48.454;-2.058;2024-01-30T08:11:20;5.97;;;1.30;;
76612;SDS011;65507;48.454;-2.058;2024-01-30T08:13:51;1.20;;;0.93;;
76612;SDS011;65507;48.454;-2.058;2024-01-30T08:16:17;1.85;;;1.05;;
76612;SDS011;65507;48.454;-2.058;2024-01-30T08:18:43;3.70;;;1.20;;
76612;SDS011;65507;48.454;-2.058;2024-01-30T08:21:08;1.42;;;0.80;;
76612;SDS011;65507;48.454;-2.058;2024-01-30T08:23:34;3.08;;;1.10;;
76612;SDS011;65507;48.454;-2.058;2024-01-30T08:26:00;1.30;;;1.00;;
76612;SDS011;65507;48.454;-2.058;2024-01-30T08:28:26;1.23;;;0.95;;
76612;SDS011;65507;48.454;-2.058;2024-01-30T08:30:51;1.48;;;0.82;;
76612;SDS011;65507;48.454;-2.058;2024-01-30T08:33:17;2.95;;;1.23;;
76612;SDS011;65507;48.454;-2.058;2024-01-30T08:35:43;3.85;;;0.95;;
76612;SDS011;65507;48.454;-2.058;2024-01-30T08:38:11;2.85;;;1.00;;
76612;SDS011;65507;48.454;-2.058;2024-01-30T08:40:37;1.67;;;0.98;;
76612;SDS011;65507;48.454;-2.058;2024-01-30T08:43:03;1.77;;;0.80;;
76612;SDS011;65507;48.454;-2.058;2024-01-30T08:45:29;2.60;;;0.88;;
76612;SDS011;65507;48.454;-2.058;2024-01-30T08:47:55;4.75;;;1.10;;
76612;SDS011;65507;48.454;-2.058;2024-01-30T08:50:21;1.67;;;0.80;;
76612;SDS011;65507;48.454;-2.058;2024-01-30T08:52:47;2.30;;;1.00;;
76612;SDS011;65507;48.454;-2.058;2024-01-30T08:55:13;3.47;;;0.82;;
76612;SDS011;65507;48.454;-2.058;2024-01-30T08:57:39;2.72;;;1.10;;
76612;SDS011;65507;48.454;-2.058;2024-01-30T09:00:05;1.52;;;1.00;;
76612;SDS011;65507;48.454;-2.058;2024-01-30T09:02:31;3.33;;;1.10;;
76612;SDS011;65507;48.454;-2.058;2024-01-30T09:04:57;2.70;;;1.40;;
76612;SDS011;65507;48.454;-2.058;2024-01-30T09:07:23;0.73;;;0.70;;
76612;SDS011;65507;48.454;-2.058;2024-01-30T09:09:49;1.45;;;0.90;;
76612;SDS011;65507;48.454;-2.058;2024-01-30T09:12:15;3.35;;;1.00;;
76612;SDS011;65507;48.454;-2.058;2024-01-30T09:14:40;2.20;;;1.10;;
76612;SDS011;65507;48.454;-2.058;2024-01-30T09:17:06;1.80;;;0.85;;
76612;SDS011;65507;48.454;-2.058;2024-01-30T09:19:32;1.85;;;1.20;;
76612;SDS011;65507;48.454;-2.058;2024-01-30T09:21:58;3.45;;;1.30;;
76612;SDS011;65507;48.454;-2.058;2024-01-30T09:24:25;2.53;;;1.20;;
76612;SDS011;65507;48.454;-2.058;2024-01-30T09:26:51;1.83;;;1.10;;
76612;SDS011;65507;48.454;-2.058;2024-01-30T09:29:17;1.35;;;1.00;;
76612;SDS011;65507;48.454;-2.058;2024-01-30T09:31:44;4.03;;;0.80;;
76612;SDS011;65507;48.454;-2.058;2024-01-30T09:34:12;2.65;;;0.80;;
76612;SDS011;65507;48.454;-2.058;2024-01-30T09:36:38;2.15;;;0.90;;
76612;SDS011;65507;48.454;-2.058;2024-01-30T09:39:04;1.48;;;0.80;;
76612;SDS011;65507;48.454;-2.058;2024-01-30T09:41:32;1.45;;;1.02;;
76612;SDS011;65507;48.454;-2.058;2024-01-30T09:43:59;4.47;;;1.02;;
76612;SDS011;65507;48.454;-2.058;2024-01-30T09:46:27;1.35;;;1.00;;
76612;SDS011;65507;48.454;-2.058;2024-01-30T09:48:55;3.17;;;0.80;;
76612;SDS011;65507;48.454;-2.058;2024-01-30T09:53:48;1.55;;;0.95;;
76612;SDS011;65507;48.454;-2.058;2024-01-30T09:56:14;3.70;;;1.25;;
76612;SDS011;65507;48.454;-2.058;2024-01-30T09:58:41;3.80;;;1.65;;
76612;SDS011;65507;48.454;-2.058;2024-01-30T10:01:07;4.03;;;2.03;;
76612;SDS011;65507;48.454;-2.058;2024-01-30T10:03:33;3.75;;;1.20;;
76612;SDS011;65507;48.454;-2.058;2024-01-30T10:05:59;7.20;;;3.15;;
76612;SDS011;65507;48.454;-2.058;2024-01-30T10:08:26;8.40;;;3.30;;
76612;SDS011;65507;48.454;-2.058;2024-01-30T10:10:52;3.47;;;1.33;;
76612;SDS011;65507;48.454;-2.058;2024-01-30T10:13:17;2.65;;;1.08;;
76612;SDS011;65507;48.454;-2.058;2024-01-30T10:15:44;1.77;;;0.98;;
76612;SDS011;65507;48.454;-2.058;2024-01-30T10:18:10;2.45;;;1.08;;
76612;SDS011;65507;48.454;-2.058;2024-01-30T10:20:36;1.38;;;0.82;;
76612;SDS011;65507;48.454;-2.058;2024-01-30T10:23:02;2.40;;;0.80;;
76612;SDS011;65507;48.454;-2.058;2024-01-30T10:25:28;3.97;;;0.88;;
76612;SDS011;65507;48.454;-2.058;2024-01-30T10:27:55;1.63;;;0.75;;
76612;SDS011;65507;48.454;-2.058;2024-01-30T10:30:21;2.40;;;0.75;;
76612;SDS011;65507;48.454;-2.058;2024-01-30T10:32:48;1.02;;;0.57;;
76612;SDS011;65507;48.454;-2.058;2024-01-30T10:35:14;0.47;;;0.35;;
76612;SDS011;65507;48.454;-2.058;2024-01-30T10:37:41;1.30;;;0.57;;
76612;SDS011;65507;48.454;-2.058;2024-01-30T10:40:09;3.17;;;0.70;;
76612;SDS011;65507;48.454;-2.058;2024-01-30T10:42:38;3.05;;;0.65;;
76612;SDS011;65507;48.454;-2.058;2024-01-30T10:45:10;1.13;;;0.50;;
76612;SDS011;65507;48.454;-2.058;2024-01-30T10:47:43;1.92;;;0.75;;
76612;SDS011;65507;48.454;-2.058;2024-01-30T10:50:13;1.50;;;0.70;;
76612;SDS011;65507;48.454;-2.058;2024-01-30T10:52:39;1.95;;;0.90;;
76612;SDS011;65507;48.454;-2.058;2024-01-30T10:55:07;2.67;;;0.85;;
76612;SDS011;65507;48.454;-2.058;2024-01-30T10:57:33;3.00;;;0.85;;
76612;SDS011;65507;48.454;-2.058;2024-01-30T11:00:10;3.25;;;1.15;;
76612;SDS011;65507;48.454;-2.058;2024-01-30T11:02:41;2.30;;;0.60;;
76612;SDS011;65507;48.454;-2.058;2024-01-30T11:05:11;0.82;;;0.77;;
76612;SDS011;65507;48.454;-2.058;2024-01-30T11:07:38;1.65;;;0.50;;
76612;SDS011;65507;48.454;-2.058;2024-01-30T11:10:08;2.95;;;0.50;;
76612;SDS011;65507;48.454;-2.058;2024-01-30T11:12:38;1.00;;;0.60;;
76612;SDS011;65507;48.454;-2.058;2024-01-30T11:15:12;2.65;;;0.55;;
76612;SDS011;65507;48.454;-2.058;2024-01-30T11:20:27;2.08;;;0.50;;
76612;SDS011;65507;48.454;-2.058;2024-01-30T11:22:58;1.50;;;0.50;;
76612;SDS011;65507;48.454;-2.058;2024-01-30T11:25:25;2.65;;;0.90;;
76612;SDS011;65507;48.454;-2.058;2024-01-30T11:27:52;0.85;;;0.50;;
76612;SDS011;65507;48.454;-2.058;2024-01-30T11:30:31;1.27;;;0.60;;
76612;SDS011;65507;48.454;-2.058;2024-01-30T11:33:12;3.05;;;0.88;;
76612;SDS011;65507;48.454;-2.058;2024-01-30T11:35:40;1.70;;;0.60;;
76612;SDS011;65507;48.454;-2.058;2024-01-30T11:38:10;0.95;;;0.50;;
76612;SDS011;65507;48.454;-2.058;2024-01-30T11:40:38;3.72;;;0.60;;
76612;SDS011;65507;48.454;-2.058;2024-01-30T11:43:06;1.13;;;0.65;;
76612;SDS011;65507;48.454;-2.058;2024-01-30T11:45:36;1.30;;;0.65;;
76612;SDS011;65507;48.454;-2.058;2024-01-30T11:48:02;0.60;;;0.50;;
76612;SDS011;65507;48.454;-2.058;2024-01-30T11:50:35;0.40;;;0.30;;
76612;SDS011;65507;48.454;-2.058;2024-01-30T11:53:03;1.25;;;0.20;;
76612;SDS011;65507;48.454;-2.058;2024-01-30T11:55:30;2.35;;;0.30;;
76612;SDS011;65507;48.454;-2.058;2024-01-30T11:57:59;1.02;;;0.20;;
76612;SDS011;65507;48.454;-2.058;2024-01-30T12:00:25;0.43;;;0.20;;
76612;SDS011;65507;48.454;-2.058;2024-01-30T12:02:52;0.20;;;0.20;;
76612;SDS011;65507;48.454;-2.058;2024-01-30T12:05:22;0.73;;;0.30;;
76612;SDS011;65507;48.454;-2.058;2024-01-30T12:07:49;0.22;;;0.22;;
76612;SDS011;65507;48.454;-2.058;2024-01-30T12:10:18;0.32;;;0.20;;
76612;SDS011;65507;48.454;-2.058;2024-01-30T12:12:48;2.55;;;0.30;;
76612;SDS011;65507;48.454;-2.058;2024-01-30T12:15:15;1.00;;;0.35;;
76612;SDS011;65507;48.454;-2.058;2024-01-30T12:17:42;0.20;;;0.20;;
76612;SDS011;65507;48.454;-2.058;2024-01-30T12:20:08;1.17;;;0.70;;
76612;SDS011;65507;48.454;-2.058;2024-01-30T12:22:36;3.20;;;0.70;;
76612;SDS011;65507;48.454;-2.058;2024-01-30T12:25:20;3.15;;;0.50;;
76612;SDS011;65507;48.454;-2.058;2024-01-30T12:27:51;0.88;;;0.50;;
76612;SDS011;65507;48.454;-2.058;2024-01-30T12:30:18;1.85;;;0.50;;
76612;SDS011;65507;48.454;-2.058;2024-01-30T12:32:45;2.05;;;0.40;;
76612;SDS011;65507;48.454;-2.058;2024-01-30T12:35:13;2.47;;;0.63;;
76612;SDS011;65507;48.454;-2.058;2024-01-30T12:37:40;0.65;;;0.35;;
76612;SDS011;65507;48.454;-2.058;2024-01-30T12:40:07;3.35;;;0.32;;
76612;SDS011;65507;48.454;-2.058;2024-01-30T12:42:34;1.83;;;0.60;;
76612;SDS011;65507;48.454;-2.058;2024-01-30T12:45:01;2.22;;;0.40;;
76612;SDS011;65507;48.454;-2.058;2024-01-30T12:47:29;1.70;;;0.38;;
76612;SDS011;65507;48.454;-2.058;2024-01-30T12:49:55;2.17;;;0.40;;
76612;SDS011;65507;48.454;-2.058;2024-01-30T12:52:21;1.15;;;0.40;;
76612;SDS011;65507;48.454;-2.058;2024-01-30T12:54:48;1.05;;;0.50;;
76612;SDS011;65507;48.454;-2.058;2024-01-30T12:57:14;2.13;;;0.70;;
76612;SDS011;65507;48.454;-2.058;2024-01-30T12:59:39;2.13;;;0.50;;
76612;SDS011;65507;48.454;-2.058;2024-01-30T13:02:05;1.50;;;0.45;;
76612;SDS011;65507;48.454;-2.058;2024-01-30T13:04:31;3.35;;;0.70;;
76612;SDS011;65507;48.454;-2.058;2024-01-30T13:06:57;0.85;;;0.50;;
76612;SDS011;65507;48.454;-2.058;2024-01-30T13:09:23;5.88;;;0.80;;
76612;SDS011;65507;48.454;-2.058;2024-01-30T13:11:49;1.10;;;0.30;;
76612;SDS011;65507;48.454;-2.058;2024-01-30T13:14:16;2.95;;;0.25;;
76612;SDS011;65507;48.454;-2.058;2024-01-30T13:16:42;1.25;;;0.40;;
76612;SDS011;65507;48.454;-2.058;2024-01-30T13:19:08;1.85;;;0.47;;
76612;SDS011;65507;48.454;-2.058;2024-01-30T13:21:34;2.45;;;0.40;;
76612;SDS011;65507;48.454;-2.058;2024-01-30T13:23:59;1.08;;;0.50;;
76612;SDS011;65507;48.454;-2.058;2024-01-30T13:26:25;2.38;;;0.40;;
76612;SDS011;65507;48.454;-2.058;2024-01-30T13:28:51;0.77;;;0.35;;
76612;SDS011;65507;48.454;-2.058;2024-01-30T13:31:16;2.25;;;0.40;;
76612;SDS011;65507;48.454;-2.058;2024-01-30T13:33:43;2.22;;;0.70;;
76612;SDS011;65507;48.454;-2.058;2024-01-30T13:36:10;9.43;;;2.75;;
76612;SDS011;65507;48.454;-2.058;2024-01-30T13:38:36;1.30;;;0.50;;
76612;SDS011;65507;48.454;-2.058;2024-01-30T13:41:03;1.10;;;0.40;;
76612;SDS011;65507;48.454;-2.058;2024-01-30T13:43:28;2.10;;;0.30;;
76612;SDS011;65507;48.454;-2.058;2024-01-30T13:45:54;0.45;;;0.30;;
76612;SDS011;65507;48.454;-2.058;2024-01-30T13:48:20;2.47;;;0.60;;
76612;SDS011;65507;48.454;-2.058;2024-01-30T13:50:46;10.52;;;0.77;;
76612;SDS011;65507;48.454;-2.058;2024-01-30T13:53:12;1.15;;;0.47;;
76612;SDS011;65507;48.454;-2.058;2024-01-30T13:55:38;1.75;;;0.30;;
76612;SDS011;65507;48.454;-2.058;2024-01-30T13:58:04;1.13;;;0.55;;
76612;SDS011;65507;48.454;-2.058;2024-01-30T14:00:31;0.73;;;0.50;;
76612;SDS011;65507;48.454;-2.058;2024-01-30T14:02:57;2.38;;;0.52;;
76612;SDS011;65507;48.454;-2.058;2024-01-30T14:05:24;3.50;;;1.33;;
76612;SDS011;65507;48.454;-2.058;2024-01-30T14:07:50;1.45;;;0.40;;
76612;SDS011;65507;48.454;-2.058;2024-01-30T14:10:19;2.35;;;0.40;;
76612;SDS011;65507;48.454;-2.058;2024-01-30T14:12:45;1.20;;;0.50;;
76612;SDS011;65507;48.454;-2.058;2024-01-30T14:15:13;3.33;;;0.85;;
76612;SDS011;65507;48.454;-2.058;2024-01-30T14:17:48;2.03;;;1.10;;
76612;SDS011;65507;48.454;-2.058;2024-01-30T14:20:14;2.60;;;0.60;;
76612;SDS011;65507;48.454;-2.058;2024-01-30T14:22:43;3.30;;;1.10;;
76612;SDS011;65507;48.454;-2.058;2024-01-30T14:25:08;1.42;;;0.75;;
76612;SDS011;65507;48.454;-2.058;2024-01-30T14:27:34;2.67;;;0.68;;
76612;SDS011;65507;48.454;-2.058;2024-01-30T14:30:01;2.15;;;0.80;;
76612;SDS011;65507;48.454;-2.058;2024-01-30T14:32:28;2.92;;;1.23;;
76612;SDS011;65507;48.454;-2.058;2024-01-30T14:34:56;4.20;;;1.00;;
76612;SDS011;65507;48.454;-2.058;2024-01-30T14:37:22;1.08;;;0.55;;
76612;SDS011;65507;48.454;-2.058;2024-01-30T14:39:48;4.00;;;0.82;;